sensor_id;sensor_type;location;lat;lon;timestamp;pressure;altitude;pressure_sealevel;temperature;humidity
57412;BME280;43247;52.828;-8.980;2023-02-15T00:00:20;101515.05;;;10.72;86.91
57412;BME280;43247;52.828;-8.980;2023-02-15T00:01:19;101518.03;;;10.71;87.21
57412;BME280;43247;52.828;-8.980;2023-02-15T00:02:20;101514.38;;;10.72;87.38
57412;BME280;43247;52.828;-8.980;2023-02-15T00:03:21;101517.75;;;10.74;87.10
57412;BME280;43247;52.828;-8.980;2023-02-15T00:04:23;101514.05;;;10.74;87.22
57412;BME280;43247;52.828;-8.980;2023-02-15T00:05:21;101514.21;;;10.74;87.39
57412;BME280;43247;52.828;-8.980;2023-02-15T00:06:22;101512.00;;;10.73;87.27
57412;BME280;43247;52.828;-8.980;2023-02-15T00:07:22;101514.21;;;10.72;87.15
57412;BME280;43247;52.828;-8.980;2023-02-15T00:08:23;101515.83;;;10.73;87.41
57412;BME280;43247;52.828;-8.980;2023-02-15T00:09:23;101511.10;;;10.72;87.36
57412;BME280;43247;52.828;-8.980;2023-02-15T00:10:24;101506.75;;;10.73;87.53
57412;BME280;43247;52.828;-8.980;2023-02-15T00:11:24;101507.38;;;10.73;87.32
57412;BME280;43247;52.828;-8.980;2023-02-15T00:12:25;101505.21;;;10.72;87.32
57412;BME280;43247;52.828;-8.980;2023-02-15T00:13:25;101505.79;;;10.72;87.46
57412;BME280;43247;52.828;-8.980;2023-02-15T00:14:25;101499.29;;;10.72;87.69
57412;BME280;43247;52.828;-8.980;2023-02-15T00:15:26;101497.27;;;10.72;87.82
57412;BME280;43247;52.828;-8.980;2023-02-15T00:16:27;101493.01;;;10.73;87.63
57412;BME280;43247;52.828;-8.980;2023-02-15T00:17:27;101491.06;;;10.74;87.51
57412;BME280;43247;52.828;-8.980;2023-02-15T00:18:27;101488.48;;;10.75;87.46
57412;BME280;43247;52.828;-8.980;2023-02-15T00:19:28;101486.63;;;10.74;87.57
57412;BME280;43247;52.828;-8.980;2023-02-15T00:20:29;101486.99;;;10.75;87.53
57412;BME280;43247;52.828;-8.980;2023-02-15T00:21:31;101484.51;;;10.75;87.50
57412;BME280;43247;52.828;-8.980;2023-02-15T00:22:30;101484.18;;;10.77;87.51
57412;BME280;43247;52.828;-8.980;2023-02-15T00:23:31;101482.28;;;10.76;87.39
57412;BME280;43247;52.828;-8.980;2023-02-15T00:24:31;101471.50;;;10.77;87.32
57412;BME280;43247;52.828;-8.980;2023-02-15T00:25:32;101473.78;;;10.77;87.32
57412;BME280;43247;52.828;-8.980;2023-02-15T00:26:33;101471.55;;;10.79;87.35
57412;BME280;43247;52.828;-8.980;2023-02-15T00:27:33;101471.48;;;10.81;87.23
57412;BME280;43247;52.828;-8.980;2023-02-15T00:28:33;101467.95;;;10.81;87.25
57412;BME280;43247;52.828;-8.980;2023-02-15T00:29:33;101464.20;;;10.84;87.21
57412;BME280;43247;52.828;-8.980;2023-02-15T00:30:33;101465.91;;;10.84;87.14
57412;BME280;43247;52.828;-8.980;2023-02-15T00:31:34;101466.56;;;10.85;87.07
57412;BME280;43247;52.828;-8.980;2023-02-15T00:32:34;101465.88;;;10.83;87.08
57412;BME280;43247;52.828;-8.980;2023-02-15T00:33:36;101469.24;;;10.87;86.96
57412;BME280;43247;52.828;-8.980;2023-02-15T00:34:36;101469.43;;;10.88;86.87
57412;BME280;43247;52.828;-8.980;2023-02-15T00:35:37;101469.20;;;10.88;86.85
57412;BME280;43247;52.828;-8.980;2023-02-15T00:36:38;101468.56;;;10.87;86.93
57412;BME280;43247;52.828;-8.980;2023-02-15T00:37:38;101465.53;;;10.87;87.18
57412;BME280;43247;52.828;-8.980;2023-02-15T00:38:38;101467.27;;;10.87;87.49
57412;BME280;43247;52.828;-8.980;2023-02-15T00:39:39;101469.65;;;10.87;87.51
57412;BME280;43247;52.828;-8.980;2023-02-15T00:40:39;101465.70;;;10.85;87.50
57412;BME280;43247;52.828;-8.980;2023-02-15T00:41:40;101459.72;;;10.84;87.56
57412;BME280;43247;52.828;-8.980;2023-02-15T00:42:40;101459.65;;;10.85;87.46
57412;BME280;43247;52.828;-8.980;2023-02-15T00:43:41;101460.91;;;10.85;87.45
57412;BME280;43247;52.828;-8.980;2023-02-15T00:44:42;101458.45;;;10.85;87.50
57412;BME280;43247;52.828;-8.980;2023-02-15T00:45:42;101459.90;;;10.85;87.54
57412;BME280;43247;52.828;-8.980;2023-02-15T00:46:42;101459.88;;;10.85;87.48
57412;BME280;43247;52.828;-8.980;2023-02-15T00:47:43;101458.00;;;10.84;87.57
57412;BME280;43247;52.828;-8.980;2023-02-15T00:48:43;101458.21;;;10.83;87.92
57412;BME280;43247;52.828;-8.980;2023-02-15T00:49:44;101457.08;;;10.83;88.04
57412;BME280;43247;52.828;-8.980;2023-02-15T00:50:45;101466.03;;;10.84;87.99
57412;BME280;43247;52.828;-8.980;2023-02-15T00:51:45;101467.24;;;10.84;87.96
57412;BME280;43247;52.828;-8.980;2023-02-15T00:52:45;101468.05;;;10.84;87.95
57412;BME280;43247;52.828;-8.980;2023-02-15T00:53:46;101470.99;;;10.84;88.11
57412;BME280;43247;52.828;-8.980;2023-02-15T00:54:46;101477.46;;;10.82;88.23
57412;BME280;43247;52.828;-8.980;2023-02-15T00:55:47;101483.71;;;10.82;88.67
57412;BME280;43247;52.828;-8.980;2023-02-15T00:56:47;101497.67;;;10.83;88.55
57412;BME280;43247;52.828;-8.980;2023-02-15T00:57:48;101522.07;;;10.83;88.37
57412;BME280;43247;52.828;-8.980;2023-02-15T00:58:49;101554.84;;;10.83;88.42
57412;BME280;43247;52.828;-8.980;2023-02-15T00:59:49;101562.81;;;10.81;88.79
57412;BME280;43247;52.828;-8.980;2023-02-15T01:00:49;101584.37;;;10.78;88.85
57412;BME280;43247;52.828;-8.980;2023-02-15T01:01:50;101597.10;;;10.74;88.87
57412;BME280;43247;52.828;-8.980;2023-02-15T01:02:51;101601.43;;;10.71;88.72
57412;BME280;43247;52.828;-8.980;2023-02-15T01:03:51;101591.69;;;10.69;88.46
57412;BME280;43247;52.828;-8.980;2023-02-15T01:04:51;101590.46;;;10.64;88.16
57412;BME280;43247;52.828;-8.980;2023-02-15T01:05:52;101586.00;;;10.56;87.76
57412;BME280;43247;52.828;-8.980;2023-02-15T01:06:52;101589.62;;;10.50;87.43
57412;BME280;43247;52.828;-8.980;2023-02-15T01:07:52;101579.18;;;10.44;87.28
57412;BME280;43247;52.828;-8.980;2023-02-15T01:08:52;101575.69;;;10.43;87.02
57412;BME280;43247;52.828;-8.980;2023-02-15T01:09:53;101575.77;;;10.41;87.03
57412;BME280;43247;52.828;-8.980;2023-02-15T01:10:53;101565.39;;;10.36;86.88
57412;BME280;43247;52.828;-8.980;2023-02-15T01:11:53;101582.37;;;10.29;86.88
57412;BME280;43247;52.828;-8.980;2023-02-15T01:12:54;101586.62;;;10.27;86.81
57412;BME280;43247;52.828;-8.980;2023-02-15T01:13:56;101586.24;;;10.25;86.43
57412;BME280;43247;52.828;-8.980;2023-02-15T01:14:54;101578.66;;;10.22;86.19
57412;BME280;43247;52.828;-8.980;2023-02-15T01:15:54;101576.36;;;10.17;86.25
57412;BME280;43247;52.828;-8.980;2023-02-15T01:16:54;101578.16;;;10.18;86.14
57412;BME280;43247;52.828;-8.980;2023-02-15T01:17:55;101577.11;;;10.15;85.93
57412;BME280;43247;52.828;-8.980;2023-02-15T01:18:55;101575.35;;;10.16;85.91
57412;BME280;43247;52.828;-8.980;2023-02-15T01:19:55;101575.43;;;10.14;85.84
57412;BME280;43247;52.828;-8.980;2023-02-15T01:20:55;101566.76;;;10.12;85.75
57412;BME280;43247;52.828;-8.980;2023-02-15T01:21:55;101571.59;;;10.10;85.67
57412;BME280;43247;52.828;-8.980;2023-02-15T01:22:57;101567.84;;;10.09;85.89
57412;BME280;43247;52.828;-8.980;2023-02-15T01:23:56;101574.33;;;10.07;85.79
57412;BME280;43247;52.828;-8.980;2023-02-15T01:24:56;101581.61;;;10.05;85.78
57412;BME280;43247;52.828;-8.980;2023-02-15T01:25:56;101579.90;;;10.05;85.79
57412;BME280;43247;52.828;-8.980;2023-02-15T01:26:56;101588.04;;;10.06;85.70
57412;BME280;43247;52.828;-8.980;2023-02-15T01:27:56;101591.63;;;10.06;85.59
57412;BME280;43247;52.828;-8.980;2023-02-15T01:28:56;101590.44;;;10.04;85.46
57412;BME280;43247;52.828;-8.980;2023-02-15T01:29:57;101599.62;;;10.04;85.41
57412;BME280;43247;52.828;-8.980;2023-02-15T01:30:57;101603.43;;;10.03;85.38
57412;BME280;43247;52.828;-8.980;2023-02-15T01:31:57;101608.39;;;10.03;85.31
57412;BME280;43247;52.828;-8.980;2023-02-15T01:32:57;101615.45;;;10.04;85.37
57412;BME280;43247;52.828;-8.980;2023-02-15T01:33:57;101619.47;;;10.02;85.22
57412;BME280;43247;52.828;-8.980;2023-02-15T01:34:57;101621.61;;;10.02;85.23
57412;BME280;43247;52.828;-8.980;2023-02-15T01:35:58;101618.00;;;10.00;85.08
57412;BME280;43247;52.828;-8.980;2023-02-15T01:36:58;101614.81;;;9.99;85.08
57412;BME280;43247;52.828;-8.980;2023-02-15T01:37:58;101614.52;;;9.98;85.11
57412;BME280;43247;52.828;-8.980;2023-02-15T01:38:59;101610.34;;;9.96;85.10
57412;BME280;43247;52.828;-8.980;2023-02-15T01:39:59;101612.25;;;9.94;85.06
57412;BME280;43247;52.828;-8.980;2023-02-15T01:40:59;101613.58;;;9.94;85.27
57412;BME280;43247;52.828;-8.980;2023-02-15T01:41:59;101614.18;;;9.94;85.48
57412;BME280;43247;52.828;-8.980;2023-02-15T01:43:00;101616.92;;;9.95;85.61
57412;BME280;43247;52.828;-8.980;2023-02-15T01:44:01;101619.97;;;9.94;85.42
57412;BME280;43247;52.828;-8.980;2023-02-15T01:45:01;101622.94;;;9.92;85.32
57412;BME280;43247;52.828;-8.980;2023-02-15T01:46:00;101630.21;;;9.91;85.24
57412;BME280;43247;52.828;-8.980;2023-02-15T01:47:01;101635.49;;;9.89;85.49
57412;BME280;43247;52.828;-8.980;2023-02-15T01:48:04;101638.93;;;9.88;85.30
57412;BME280;43247;52.828;-8.980;2023-02-15T01:49:04;101636.21;;;9.87;85.59
57412;BME280;43247;52.828;-8.980;2023-02-15T01:50:08;101634.84;;;9.86;85.62
57412;BME280;43247;52.828;-8.980;2023-02-15T01:51:03;101639.90;;;9.86;85.48
57412;BME280;43247;52.828;-8.980;2023-02-15T01:52:04;101640.94;;;9.85;85.70
57412;BME280;43247;52.828;-8.980;2023-02-15T01:53:08;101641.47;;;9.83;85.25
57412;BME280;43247;52.828;-8.980;2023-02-15T01:54:10;101645.74;;;9.82;85.53
57412;BME280;43247;52.828;-8.980;2023-02-15T01:55:05;101646.99;;;9.82;85.64
57412;BME280;43247;52.828;-8.980;2023-02-15T01:56:07;101646.88;;;9.80;85.61
57412;BME280;43247;52.828;-8.980;2023-02-15T01:57:09;101649.10;;;9.80;85.58
57412;BME280;43247;52.828;-8.980;2023-02-15T01:58:05;101645.62;;;9.79;85.70
57412;BME280;43247;52.828;-8.980;2023-02-15T01:59:08;101647.03;;;9.77;85.81
57412;BME280;43247;52.828;-8.980;2023-02-15T02:00:06;101650.34;;;9.77;85.83
57412;BME280;43247;52.828;-8.980;2023-02-15T02:01:07;101649.32;;;9.74;85.67
57412;BME280;43247;52.828;-8.980;2023-02-15T02:02:07;101651.95;;;9.73;85.59
57412;BME280;43247;52.828;-8.980;2023-02-15T02:03:06;101656.42;;;9.72;85.85
57412;BME280;43247;52.828;-8.980;2023-02-15T02:04:11;101657.51;;;9.71;85.88
57412;BME280;43247;52.828;-8.980;2023-02-15T02:05:07;101657.86;;;9.71;85.83
57412;BME280;43247;52.828;-8.980;2023-02-15T02:06:06;101661.29;;;9.69;85.94
57412;BME280;43247;52.828;-8.980;2023-02-15T02:07:07;101656.68;;;9.67;85.66
57412;BME280;43247;52.828;-8.980;2023-02-15T02:08:07;101655.36;;;9.66;85.61
57412;BME280;43247;52.828;-8.980;2023-02-15T02:09:07;101648.03;;;9.65;85.72
57412;BME280;43247;52.828;-8.980;2023-02-15T02:10:10;101650.76;;;9.65;85.94
57412;BME280;43247;52.828;-8.980;2023-02-15T02:11:10;101650.81;;;9.64;85.63
57412;BME280;43247;52.828;-8.980;2023-02-15T02:12:08;101653.36;;;9.65;86.02
57412;BME280;43247;52.828;-8.980;2023-02-15T02:13:07;101650.91;;;9.64;85.79
57412;BME280;43247;52.828;-8.980;2023-02-15T02:14:08;101650.53;;;9.63;85.65
57412;BME280;43247;52.828;-8.980;2023-02-15T02:15:08;101649.60;;;9.63;86.06
57412;BME280;43247;52.828;-8.980;2023-02-15T02:16:13;101648.85;;;9.62;85.79
57412;BME280;43247;52.828;-8.980;2023-02-15T02:17:13;101651.23;;;9.61;85.66
57412;BME280;43247;52.828;-8.980;2023-02-15T02:18:20;101651.55;;;9.60;85.60
57412;BME280;43247;52.828;-8.980;2023-02-15T02:20:17;101657.78;;;9.59;85.73
57412;BME280;43247;52.828;-8.980;2023-02-15T02:21:22;101659.04;;;9.58;85.71
57412;BME280;43247;52.828;-8.980;2023-02-15T02:22:27;101663.70;;;9.57;85.52
57412;BME280;43247;52.828;-8.980;2023-02-15T02:24:19;101659.06;;;9.55;85.48
57412;BME280;43247;52.828;-8.980;2023-02-15T02:25:22;101655.79;;;9.54;85.29
57412;BME280;43247;52.828;-8.980;2023-02-15T02:27:21;101656.50;;;9.53;85.26
57412;BME280;43247;52.828;-8.980;2023-02-15T02:28:23;101655.91;;;9.52;85.42
57412;BME280;43247;52.828;-8.980;2023-02-15T02:29:22;101654.80;;;9.51;85.35
57412;BME280;43247;52.828;-8.980;2023-02-15T02:30:20;101658.60;;;9.50;85.38
57412;BME280;43247;52.828;-8.980;2023-02-15T02:31:27;101657.95;;;9.51;85.32
57412;BME280;43247;52.828;-8.980;2023-02-15T02:34:15;101655.50;;;9.44;84.44
57412;BME280;43247;52.828;-8.980;2023-02-15T02:35:16;101663.55;;;9.42;84.42
57412;BME280;43247;52.828;-8.980;2023-02-15T02:36:18;101667.03;;;9.42;84.38
57412;BME280;43247;52.828;-8.980;2023-02-15T02:37:16;101665.15;;;9.40;84.24
57412;BME280;43247;52.828;-8.980;2023-02-15T02:38:18;101666.79;;;9.38;84.12
57412;BME280;43247;52.828;-8.980;2023-02-15T02:39:22;101663.51;;;9.38;84.27
57412;BME280;43247;52.828;-8.980;2023-02-15T02:40:19;101666.03;;;9.37;84.59
57412;BME280;43247;52.828;-8.980;2023-02-15T02:41:17;101666.02;;;9.36;84.51
57412;BME280;43247;52.828;-8.980;2023-02-15T02:42:17;101664.58;;;9.35;84.51
57412;BME280;43247;52.828;-8.980;2023-02-15T02:43:18;101664.39;;;9.35;84.50
57412;BME280;43247;52.828;-8.980;2023-02-15T02:44:16;101664.83;;;9.34;84.63
57412;BME280;43247;52.828;-8.980;2023-02-15T02:45:16;101663.07;;;9.34;84.74
57412;BME280;43247;52.828;-8.980;2023-02-15T02:46:17;101661.48;;;9.34;84.69
57412;BME280;43247;52.828;-8.980;2023-02-15T02:47:19;101658.33;;;9.32;84.72
57412;BME280;43247;52.828;-8.980;2023-02-15T02:48:16;101653.80;;;9.31;84.55
57412;BME280;43247;52.828;-8.980;2023-02-15T02:49:14;101650.00;;;9.31;84.55
57412;BME280;43247;52.828;-8.980;2023-02-15T02:50:16;101648.86;;;9.30;84.58
57412;BME280;43247;52.828;-8.980;2023-02-15T02:51:14;101651.02;;;9.30;84.77
57412;BME280;43247;52.828;-8.980;2023-02-15T02:53:14;101647.47;;;9.29;84.66
57412;BME280;43247;52.828;-8.980;2023-02-15T02:54:15;101647.40;;;9.28;84.68
57412;BME280;43247;52.828;-8.980;2023-02-15T02:55:19;101643.40;;;9.28;84.72
57412;BME280;43247;52.828;-8.980;2023-02-15T02:56:20;101639.76;;;9.28;84.67
57412;BME280;43247;52.828;-8.980;2023-02-15T02:57:15;101639.14;;;9.27;84.57
57412;BME280;43247;52.828;-8.980;2023-02-15T02:58:20;101636.15;;;9.27;84.59
57412;BME280;43247;52.828;-8.980;2023-02-15T02:59:19;101636.31;;;9.26;84.54
57412;BME280;43247;52.828;-8.980;2023-02-15T03:00:17;101635.29;;;9.26;84.49
57412;BME280;43247;52.828;-8.980;2023-02-15T03:01:19;101637.69;;;9.25;84.48
57412;BME280;43247;52.828;-8.980;2023-02-15T03:02:18;101641.58;;;9.25;84.51
57412;BME280;43247;52.828;-8.980;2023-02-15T03:03:26;101644.02;;;9.24;84.42
57412;BME280;43247;52.828;-8.980;2023-02-15T03:04:18;101643.97;;;9.24;84.44
57412;BME280;43247;52.828;-8.980;2023-02-15T03:05:21;101641.40;;;9.23;84.41
57412;BME280;43247;52.828;-8.980;2023-02-15T03:06:19;101637.83;;;9.23;84.47
57412;BME280;43247;52.828;-8.980;2023-02-15T03:07:19;101636.32;;;9.22;84.49
57412;BME280;43247;52.828;-8.980;2023-02-15T03:08:19;101634.75;;;9.22;84.54
57412;BME280;43247;52.828;-8.980;2023-02-15T03:09:21;101632.00;;;9.21;84.52
57412;BME280;43247;52.828;-8.980;2023-02-15T03:10:20;101626.57;;;9.20;84.53
57412;BME280;43247;52.828;-8.980;2023-02-15T03:11:18;101621.92;;;9.20;84.50
57412;BME280;43247;52.828;-8.980;2023-02-15T03:12:20;101620.91;;;9.19;84.49
57412;BME280;43247;52.828;-8.980;2023-02-15T03:13:18;101615.70;;;9.19;84.50
57412;BME280;43247;52.828;-8.980;2023-02-15T03:14:19;101615.90;;;9.18;84.56
57412;BME280;43247;52.828;-8.980;2023-02-15T03:15:20;101619.41;;;9.18;84.56
57412;BME280;43247;52.828;-8.980;2023-02-15T03:16:20;101613.88;;;9.17;84.56
57412;BME280;43247;52.828;-8.980;2023-02-15T03:17:21;101616.15;;;9.17;84.52
57412;BME280;43247;52.828;-8.980;2023-02-15T03:18:22;101610.46;;;9.16;84.56
57412;BME280;43247;52.828;-8.980;2023-02-15T03:19:22;101608.73;;;9.16;84.60
57412;BME280;43247;52.828;-8.980;2023-02-15T03:20:23;101605.16;;;9.16;84.74
57412;BME280;43247;52.828;-8.980;2023-02-15T03:21:22;101604.49;;;9.15;84.88
57412;BME280;43247;52.828;-8.980;2023-02-15T03:22:22;101605.28;;;9.15;84.89
57412;BME280;43247;52.828;-8.980;2023-02-15T03:23:22;101604.34;;;9.14;84.91
57412;BME280;43247;52.828;-8.980;2023-02-15T03:24:23;101605.94;;;9.14;84.94
57412;BME280;43247;52.828;-8.980;2023-02-15T03:25:23;101606.62;;;9.13;84.96
57412;BME280;43247;52.828;-8.980;2023-02-15T03:26:21;101612.40;;;9.13;85.01
57412;BME280;43247;52.828;-8.980;2023-02-15T03:27:24;101612.07;;;9.12;85.08
57412;BME280;43247;52.828;-8.980;2023-02-15T03:28:25;101608.36;;;9.12;85.12
57412;BME280;43247;52.828;-8.980;2023-02-15T03:29:26;101604.18;;;9.12;85.14
57412;BME280;43247;52.828;-8.980;2023-02-15T03:30:22;101602.52;;;9.11;85.16
57412;BME280;43247;52.828;-8.980;2023-02-15T03:31:24;101599.00;;;9.11;85.14
57412;BME280;43247;52.828;-8.980;2023-02-15T03:32:23;101596.03;;;9.11;85.19
57412;BME280;43247;52.828;-8.980;2023-02-15T03:33:23;101594.07;;;9.10;85.27
57412;BME280;43247;52.828;-8.980;2023-02-15T03:34:23;101592.56;;;9.10;85.33
57412;BME280;43247;52.828;-8.980;2023-02-15T03:35:26;101590.21;;;9.10;85.30
57412;BME280;43247;52.828;-8.980;2023-02-15T03:36:29;101588.00;;;9.09;85.27
57412;BME280;43247;52.828;-8.980;2023-02-15T03:37:28;101584.67;;;9.08;85.31
57412;BME280;43247;52.828;-8.980;2023-02-15T03:38:28;101585.91;;;9.08;85.43
57412;BME280;43247;52.828;-8.980;2023-02-15T03:39:29;101581.61;;;9.07;85.34
57412;BME280;43247;52.828;-8.980;2023-02-15T03:40:28;101581.33;;;9.07;85.39
57412;BME280;43247;52.828;-8.980;2023-02-15T03:41:26;101581.00;;;9.06;85.38
57412;BME280;43247;52.828;-8.980;2023-02-15T03:42:27;101579.30;;;9.06;85.35
57412;BME280;43247;52.828;-8.980;2023-02-15T03:43:30;101582.44;;;9.06;85.42
57412;BME280;43247;52.828;-8.980;2023-02-15T03:44:28;101582.81;;;9.06;85.47
57412;BME280;43247;52.828;-8.980;2023-02-15T03:45:28;101580.20;;;9.06;85.49
57412;BME280;43247;52.828;-8.980;2023-02-15T03:46:29;101583.20;;;9.06;85.47
57412;BME280;43247;52.828;-8.980;2023-02-15T03:47:27;101585.00;;;9.05;85.48
57412;BME280;43247;52.828;-8.980;2023-02-15T03:48:28;101586.38;;;9.05;85.48
57412;BME280;43247;52.828;-8.980;2023-02-15T03:49:29;101591.16;;;9.05;85.51
57412;BME280;43247;52.828;-8.980;2023-02-15T03:50:28;101593.62;;;9.04;85.54
57412;BME280;43247;52.828;-8.980;2023-02-15T03:51:29;101597.30;;;9.04;85.57
57412;BME280;43247;52.828;-8.980;2023-02-15T03:52:29;101597.02;;;9.03;85.54
57412;BME280;43247;52.828;-8.980;2023-02-15T03:53:26;101601.05;;;9.03;85.58
57412;BME280;43247;52.828;-8.980;2023-02-15T03:54:28;101606.27;;;9.03;85.55
57412;BME280;43247;52.828;-8.980;2023-02-15T03:55:27;101608.38;;;9.02;85.49
57412;BME280;43247;52.828;-8.980;2023-02-15T03:56:27;101608.04;;;9.02;85.47
57412;BME280;43247;52.828;-8.980;2023-02-15T03:57:28;101608.46;;;9.02;85.39
57412;BME280;43247;52.828;-8.980;2023-02-15T03:58:27;101607.66;;;9.01;85.36
57412;BME280;43247;52.828;-8.980;2023-02-15T03:59:27;101607.45;;;9.01;85.44
57412;BME280;43247;52.828;-8.980;2023-02-15T04:00:28;101607.55;;;9.00;85.36
57412;BME280;43247;52.828;-8.980;2023-02-15T04:01:33;101607.36;;;9.00;85.38
57412;BME280;43247;52.828;-8.980;2023-02-15T04:02:34;101600.74;;;9.00;85.39
57412;BME280;43247;52.828;-8.980;2023-02-15T04:03:32;101590.85;;;8.99;85.41
57412;BME280;43247;52.828;-8.980;2023-02-15T04:04:33;101585.75;;;8.99;85.39
57412;BME280;43247;52.828;-8.980;2023-02-15T04:05:28;101579.65;;;8.95;85.18
57412;BME280;43247;52.828;-8.980;2023-02-15T04:06:29;101576.18;;;8.95;84.91
57412;BME280;43247;52.828;-8.980;2023-02-15T04:07:29;101572.90;;;8.94;84.91
57412;BME280;43247;52.828;-8.980;2023-02-15T04:08:29;101572.70;;;8.95;85.02
57412;BME280;43247;52.828;-8.980;2023-02-15T04:09:29;101573.88;;;8.95;85.14
57412;BME280;43247;52.828;-8.980;2023-02-15T04:10:29;101575.78;;;8.96;85.17
57412;BME280;43247;52.828;-8.980;2023-02-15T04:11:30;101575.32;;;8.96;85.34
57412;BME280;43247;52.828;-8.980;2023-02-15T04:12:30;101575.45;;;8.95;85.25
57412;BME280;43247;52.828;-8.980;2023-02-15T04:13:31;101576.20;;;8.94;85.07
57412;BME280;43247;52.828;-8.980;2023-02-15T04:14:30;101572.64;;;8.94;85.01
57412;BME280;43247;52.828;-8.980;2023-02-15T04:15:30;101569.48;;;8.93;85.19
57412;BME280;43247;52.828;-8.980;2023-02-15T04:16:31;101569.17;;;8.93;85.23
57412;BME280;43247;52.828;-8.980;2023-02-15T04:17:31;101568.56;;;8.93;85.22
57412;BME280;43247;52.828;-8.980;2023-02-15T04:18:33;101569.34;;;8.93;85.43
57412;BME280;43247;52.828;-8.980;2023-02-15T04:19:31;101568.87;;;8.91;85.04
57412;BME280;43247;52.828;-8.980;2023-02-15T04:20:31;101567.29;;;8.85;84.73
57412;BME280;43247;52.828;-8.980;2023-02-15T04:21:32;101563.81;;;8.85;84.77
57412;BME280;43247;52.828;-8.980;2023-02-15T04:22:32;101566.59;;;8.87;84.71
57412;BME280;43247;52.828;-8.980;2023-02-15T04:23:32;101565.34;;;8.87;84.91
57412;BME280;43247;52.828;-8.980;2023-02-15T04:24:32;101569.78;;;8.88;85.05
57412;BME280;43247;52.828;-8.980;2023-02-15T04:25:32;101575.33;;;8.88;85.03
57412;BME280;43247;52.828;-8.980;2023-02-15T04:26:32;101577.85;;;8.88;85.10
57412;BME280;43247;52.828;-8.980;2023-02-15T04:27:33;101576.28;;;8.87;85.22
57412;BME280;43247;52.828;-8.980;2023-02-15T04:28:33;101583.66;;;8.87;85.09
57412;BME280;43247;52.828;-8.980;2023-02-15T04:29:33;101586.95;;;8.86;85.12
57412;BME280;43247;52.828;-8.980;2023-02-15T04:30:33;101589.43;;;8.87;85.14
57412;BME280;43247;52.828;-8.980;2023-02-15T04:31:33;101588.83;;;8.86;85.28
57412;BME280;43247;52.828;-8.980;2023-02-15T04:32:34;101587.02;;;8.86;85.35
57412;BME280;43247;52.828;-8.980;2023-02-15T04:33:34;101586.19;;;8.87;85.38
57412;BME280;43247;52.828;-8.980;2023-02-15T04:34:34;101586.85;;;8.84;85.12
57412;BME280;43247;52.828;-8.980;2023-02-15T04:35:34;101588.07;;;8.80;84.79
57412;BME280;43247;52.828;-8.980;2023-02-15T04:36:34;101588.46;;;8.78;84.78
57412;BME280;43247;52.828;-8.980;2023-02-15T04:37:35;101590.26;;;8.79;84.81
57412;BME280;43247;52.828;-8.980;2023-02-15T04:38:35;101589.57;;;8.81;84.95
57412;BME280;43247;52.828;-8.980;2023-02-15T04:39:35;101591.25;;;8.81;84.92
57412;BME280;43247;52.828;-8.980;2023-02-15T04:40:35;101592.21;;;8.82;84.93
57412;BME280;43247;52.828;-8.980;2023-02-15T04:41:35;101592.16;;;8.82;85.02
57412;BME280;43247;52.828;-8.980;2023-02-15T04:42:35;101590.64;;;8.82;85.01
57412;BME280;43247;52.828;-8.980;2023-02-15T04:43:36;101586.25;;;8.82;85.07
57412;BME280;43247;52.828;-8.980;2023-02-15T04:44:36;101587.00;;;8.81;85.07
57412;BME280;43247;52.828;-8.980;2023-02-15T04:45:36;101584.56;;;8.81;85.22
57412;BME280;43247;52.828;-8.980;2023-02-15T04:46:36;101586.33;;;8.81;85.23
57412;BME280;43247;52.828;-8.980;2023-02-15T04:47:36;101588.11;;;8.81;85.16
57412;BME280;43247;52.828;-8.980;2023-02-15T04:48:37;101590.49;;;8.81;85.17
57412;BME280;43247;52.828;-8.980;2023-02-15T04:49:37;101595.50;;;8.80;85.22
57412;BME280;43247;52.828;-8.980;2023-02-15T04:50:37;101600.64;;;8.80;85.25
57412;BME280;43247;52.828;-8.980;2023-02-15T04:51:37;101598.63;;;8.79;85.21
57412;BME280;43247;52.828;-8.980;2023-02-15T04:52:37;101598.86;;;8.79;85.21
57412;BME280;43247;52.828;-8.980;2023-02-15T04:53:37;101597.78;;;8.79;85.33
57412;BME280;43247;52.828;-8.980;2023-02-15T04:54:38;101600.82;;;8.79;85.34
57412;BME280;43247;52.828;-8.980;2023-02-15T04:55:38;101605.81;;;8.78;85.36
57412;BME280;43247;52.828;-8.980;2023-02-15T04:56:39;101607.97;;;8.78;85.33
57412;BME280;43247;52.828;-8.980;2023-02-15T04:57:38;101604.65;;;8.78;85.44
57412;BME280;43247;52.828;-8.980;2023-02-15T04:58:39;101605.55;;;8.78;85.43
57412;BME280;43247;52.828;-8.980;2023-02-15T04:59:39;101604.73;;;8.77;85.37
57412;BME280;43247;52.828;-8.980;2023-02-15T05:00:39;101603.07;;;8.77;85.38
57412;BME280;43247;52.828;-8.980;2023-02-15T05:01:39;101604.19;;;8.77;85.39
57412;BME280;43247;52.828;-8.980;2023-02-15T05:02:39;101601.43;;;8.76;85.36
57412;BME280;43247;52.828;-8.980;2023-02-15T05:03:39;101597.49;;;8.76;85.40
57412;BME280;43247;52.828;-8.980;2023-02-15T05:04:40;101594.91;;;8.77;85.48
57412;BME280;43247;52.828;-8.980;2023-02-15T05:05:40;101593.75;;;8.76;85.48
57412;BME280;43247;52.828;-8.980;2023-02-15T05:06:40;101591.84;;;8.77;85.56
57412;BME280;43247;52.828;-8.980;2023-02-15T05:07:40;101589.73;;;8.76;85.60
57412;BME280;43247;52.828;-8.980;2023-02-15T05:08:40;101590.92;;;8.76;85.53
57412;BME280;43247;52.828;-8.980;2023-02-15T05:09:41;101590.95;;;8.76;85.59
57412;BME280;43247;52.828;-8.980;2023-02-15T05:10:41;101591.63;;;8.75;85.59
57412;BME280;43247;52.828;-8.980;2023-02-15T05:11:41;101591.80;;;8.75;85.55
57412;BME280;43247;52.828;-8.980;2023-02-15T05:12:41;101591.73;;;8.75;85.71
57412;BME280;43247;52.828;-8.980;2023-02-15T05:13:41;101589.87;;;8.75;85.65
57412;BME280;43247;52.828;-8.980;2023-02-15T05:14:41;101590.43;;;8.74;85.66
57412;BME280;43247;52.828;-8.980;2023-02-15T05:15:47;101587.20;;;8.74;85.70
57412;BME280;43247;52.828;-8.980;2023-02-15T05:16:42;101588.61;;;8.74;85.79
57412;BME280;43247;52.828;-8.980;2023-02-15T05:17:42;101593.54;;;8.73;85.75
57412;BME280;43247;52.828;-8.980;2023-02-15T05:18:42;101596.20;;;8.73;85.85
57412;BME280;43247;52.828;-8.980;2023-02-15T05:19:42;101596.81;;;8.73;85.84